createdAt,value
2018-02-20T00:01:43.023Z,79.40
2018-02-20T00:04:10.638Z,79.20
2018-02-20T00:06:38.205Z,79.60
2018-02-20T00:09:05.765Z,80.10
2018-02-20T00:11:33.379Z,80.10
2018-02-20T00:14:01.770Z,79.80
2018-02-20T00:16:30.187Z,80.00
2018-02-20T00:18:57.753Z,80.00
2018-02-20T00:21:25.380Z,80.00
2018-02-20T00:23:53.019Z,79.90
2018-02-20T00:26:20.671Z,80.00
2018-02-20T00:28:48.252Z,80.00
2018-02-20T00:31:15.883Z,80.00
2018-02-20T00:33:43.457Z,79.70
2018-02-20T00:36:11.038Z,80.10
2018-02-20T00:38:39.426Z,79.90
2018-02-20T00:41:07.797Z,79.80
2018-02-20T00:43:35.378Z,79.80
2018-02-20T00:46:02.991Z,80.00
2018-02-20T00:48:30.564Z,80.00
2018-02-20T00:50:58.179Z,80.10
2018-02-20T00:53:25.786Z,80.10
2018-02-20T00:55:53.376Z,79.90
2018-02-20T00:58:21.768Z,79.60
2018-02-20T01:00:51.386Z,79.60
2018-02-20T01:03:19.009Z,79.50
2018-02-20T01:05:46.594Z,79.70
2018-02-20T01:08:14.971Z,79.60
2018-02-20T01:10:43.346Z,79.50
2018-02-20T01:13:11.677Z,79.30
2018-02-20T01:15:39.277Z,79.30
2018-02-20T01:18:06.874Z,79.40
2018-02-20T01:20:34.447Z,80.20
2018-02-20T01:23:02.051Z,79.60
2018-02-20T01:25:29.621Z,79.20
2018-02-20T01:27:58.026Z,79.40
2018-02-20T01:30:25.633Z,79.30
2018-02-20T01:32:53.214Z,79.30
2018-02-20T01:35:20.840Z,79.70
2018-02-20T01:37:48.418Z,80.00
2018-02-20T01:40:16.030Z,80.00
2018-02-20T01:42:43.621Z,80.10
2018-02-20T01:45:11.256Z,79.70
2018-02-20T01:47:39.609Z,79.40
2018-02-20T01:50:07.226Z,79.40
2018-02-20T01:52:34.792Z,79.30
2018-02-20T01:55:02.440Z,79.20
2018-02-20T01:57:30.011Z,79.40
2018-02-20T01:59:57.619Z,79.40
2018-02-20T02:02:25.196Z,79.20
2018-02-20T02:04:53.609Z,79.20
2018-02-20T02:07:21.211Z,79.10
2018-02-20T02:09:48.777Z,79.40
2018-02-20T02:12:20.207Z,79.30
2018-02-20T02:14:50.057Z,79.30
2018-02-20T02:17:21.760Z,79.60
2018-02-20T02:19:52.545Z,79.50
2018-02-20T02:22:22.889Z,79.30
2018-02-20T02:24:52.068Z,79.30
2018-02-20T02:27:22.422Z,78.70
2018-02-20T02:29:52.942Z,78.70
2018-02-20T02:32:22.814Z,78.70
2018-02-20T02:34:53.241Z,78.40
2018-02-20T02:37:22.962Z,78.50
2018-02-20T02:39:53.577Z,78.50
2018-02-20T02:42:24.084Z,78.70
2018-02-20T02:44:54.942Z,78.50
2018-02-20T02:47:26.300Z,78.30
2018-02-20T02:49:59.144Z,78.50
2018-02-20T02:52:28.764Z,78.30
2018-02-20T02:54:58.633Z,78.40
2018-02-20T02:57:29.067Z,77.40
2018-02-20T02:59:59.324Z,77.60
2018-02-20T03:02:30.181Z,77.60
2018-02-20T03:04:59.856Z,77.40
2018-02-20T03:07:30.529Z,77.40
2018-02-20T03:10:01.759Z,77.20
2018-02-20T03:12:32.415Z,77.50
2018-02-20T03:15:03.065Z,77.90
2018-02-20T03:17:33.938Z,77.50
2018-02-20T03:20:03.618Z,77.70
2018-02-20T03:22:33.472Z,77.80
2018-02-20T03:25:04.152Z,78.00
2018-02-20T03:27:34.571Z,78.30
2018-02-20T03:30:08.349Z,78.10
2018-02-20T03:32:38.193Z,78.00
2018-02-20T03:35:08.170Z,78.20
2018-02-20T03:37:38.028Z,78.10
2018-02-20T03:40:07.480Z,77.80
2018-02-20T03:42:37.453Z,78.20
2018-02-20T03:45:07.198Z,77.70
2018-02-20T03:47:37.936Z,77.40
2018-02-20T03:50:08.297Z,77.30
2018-02-20T03:52:39.192Z,77.30
2018-02-20T03:55:10.513Z,76.00
2018-02-20T03:57:40.342Z,76.00
2018-02-20T04:00:09.909Z,76.30
2018-02-20T04:02:40.610Z,77.20
2018-02-20T04:05:12.283Z,76.60
2018-02-20T04:07:42.203Z,76.80
2018-02-20T04:10:12.636Z,77.00
2018-02-20T04:12:42.531Z,77.10
2018-02-20T04:15:12.221Z,76.30
2018-02-20T04:17:50.280Z,77.30
2018-02-20T04:20:20.180Z,77.30
2018-02-20T04:22:50.873Z,76.50
2018-02-20T04:25:21.545Z,77.00
2018-02-20T04:27:51.332Z,77.00
2018-02-20T04:30:21.938Z,77.10
2018-02-20T04:32:51.548Z,77.00
2018-02-20T04:35:21.168Z,77.00
2018-02-20T04:37:50.990Z,76.90
2018-02-20T04:40:22.740Z,76.50
2018-02-20T04:42:58.033Z,76.50
2018-02-20T04:45:27.560Z,76.50
2018-02-20T04:47:57.385Z,76.50
2018-02-20T04:50:26.885Z,77.00
2018-02-20T04:52:56.904Z,76.80
2018-02-20T04:55:27.723Z,76.50
2018-02-20T04:57:58.293Z,76.60
2018-02-20T05:00:27.773Z,76.70
2018-02-20T05:02:57.355Z,76.50
2018-02-20T05:05:27.048Z,77.00
2018-02-20T05:07:56.631Z,77.10
2018-02-20T05:10:27.229Z,76.40
2018-02-20T05:12:56.667Z,76.40
2018-02-20T05:15:27.008Z,77.20
2018-02-20T05:17:57.687Z,77.20
2018-02-20T05:20:35.471Z,77.50
2018-02-20T05:23:06.601Z,77.50
2018-02-20T05:25:36.235Z,77.30
2018-02-20T05:28:06.042Z,77.20
2018-02-20T05:30:35.648Z,76.90
2018-02-20T05:33:05.408Z,76.60
2018-02-20T05:35:34.967Z,76.70
2018-02-20T05:38:04.881Z,76.00
2018-02-20T05:40:34.736Z,76.60
2018-02-20T05:43:05.083Z,77.60
2018-02-20T05:45:35.549Z,78.60
2018-02-20T05:48:04.592Z,78.50
2018-02-20T05:50:34.533Z,78.00
2018-02-20T05:53:04.745Z,77.50
2018-02-20T05:55:33.996Z,77.40
2018-02-20T05:58:02.261Z,77.30
2018-02-20T06:00:30.751Z,77.30
2018-02-20T06:03:00.374Z,77.90
2018-02-20T06:05:34.292Z,77.80
2018-02-20T06:08:03.671Z,77.50
2018-02-20T06:10:33.215Z,77.60
2018-02-20T06:13:03.889Z,78.30
2018-02-20T06:15:34.327Z,78.60
2018-02-20T06:18:03.829Z,78.60
2018-02-20T06:20:33.021Z,78.60
2018-02-20T06:23:02.619Z,78.90
2018-02-20T06:25:33.386Z,78.50
2018-02-20T06:28:03.033Z,78.50
2018-02-20T06:30:32.507Z,79.00
2018-02-20T06:33:02.209Z,79.20
2018-02-20T06:35:31.698Z,79.10
2018-02-20T06:38:01.235Z,79.60
2018-02-20T06:40:30.795Z,80.60
2018-02-20T06:43:00.509Z,80.20
2018-02-20T06:45:35.340Z,79.40
2018-02-20T06:48:04.207Z,79.60
2018-02-20T06:50:33.124Z,79.60
2018-02-20T06:53:02.611Z,79.60
2018-02-20T06:55:32.853Z,78.60
2018-02-20T06:58:04.344Z,78.10
2018-02-20T07:00:33.704Z,78.00
2018-02-20T07:03:03.925Z,78.80
2018-02-20T07:05:32.983Z,78.80
2018-02-20T07:08:04.388Z,79.70
2018-02-20T07:10:33.015Z,79.30
2018-02-20T07:13:01.638Z,79.60
2018-02-20T07:15:31.517Z,78.30
2018-02-20T07:18:01.331Z,77.80
2018-02-20T07:20:30.822Z,77.60
2018-02-20T07:22:59.967Z,77.40
2018-02-20T07:25:28.204Z,77.80
2018-02-20T07:27:57.727Z,78.00
2018-02-20T07:30:27.150Z,77.10
2018-02-20T07:32:56.119Z,77.30
2018-02-20T07:35:25.705Z,77.40
2018-02-20T07:37:53.286Z,77.30
2018-02-20T07:40:24.931Z,77.30
2018-02-20T07:42:53.632Z,77.00
2018-02-20T07:45:22.352Z,77.00
2018-02-20T07:47:58.310Z,76.90
2018-02-20T07:50:27.646Z,77.20
2018-02-20T07:52:55.719Z,77.20
2018-02-20T07:55:23.416Z,76.50
2018-02-20T07:57:51.652Z,75.80
2018-02-20T08:00:19.266Z,75.80
2018-02-20T08:02:46.880Z,75.90
2018-02-20T08:05:14.569Z,76.80
2018-02-20T08:07:42.268Z,76.80
2018-02-20T08:10:10.640Z,75.80
2018-02-20T08:12:38.198Z,75.80
2018-02-20T08:15:05.762Z,75.60
2018-02-20T08:17:33.358Z,75.70
2018-02-20T08:20:00.929Z,76.10
2018-02-20T08:22:29.201Z,75.50
2018-02-20T08:24:56.781Z,75.20
2018-02-20T08:27:25.231Z,75.90
2018-02-20T08:29:52.856Z,76.00
2018-02-20T08:32:20.518Z,76.10
2018-02-20T08:34:48.188Z,76.00
2018-02-20T08:37:15.800Z,75.10
2018-02-20T08:39:43.446Z,74.40
2018-02-20T08:42:11.093Z,75.50
2018-02-20T08:44:39.467Z,75.50
2018-02-20T08:47:07.878Z,75.20
2018-02-20T08:49:35.520Z,75.20
2018-02-20T08:52:05.714Z,73.90
2018-02-20T08:54:33.342Z,73.80
2018-02-20T08:57:00.966Z,74.80
2018-02-20T08:59:29.296Z,75.30
2018-02-20T09:01:57.031Z,75.30
2018-02-20T09:04:24.632Z,74.90
2018-02-20T09:06:52.294Z,74.90
2018-02-20T09:09:19.907Z,75.20
2018-02-20T09:11:47.557Z,74.30
2018-02-20T09:14:15.986Z,74.60
2018-02-20T09:16:43.592Z,74.60
2018-02-20T09:19:11.927Z,74.90
2018-02-20T09:21:39.499Z,75.10
2018-02-20T09:24:07.196Z,74.50
2018-02-20T09:26:35.536Z,74.20
2018-02-20T09:29:03.132Z,74.20
2018-02-20T09:31:30.723Z,74.80
2018-02-20T09:33:59.107Z,74.60
2018-02-20T09:36:26.687Z,74.60
2018-02-20T09:38:54.246Z,74.40
2018-02-20T09:41:22.248Z,73.60
2018-02-20T09:43:50.016Z,74.00
2018-02-20T09:46:17.681Z,74.00
2018-02-20T09:48:45.275Z,73.60
2018-02-20T09:51:13.709Z,73.90
2018-02-20T09:53:41.421Z,73.90
2018-02-20T09:56:09.852Z,73.40
2018-02-20T09:58:37.463Z,73.30
2018-02-20T10:01:05.062Z,72.20
2018-02-20T10:03:32.620Z,73.40
2018-02-20T10:06:00.806Z,73.60
2018-02-20T10:08:28.410Z,72.90
2018-02-20T10:10:56.789Z,73.70
2018-02-20T10:13:25.187Z,73.30
2018-02-20T10:15:53.901Z,73.30
2018-02-20T10:18:22.396Z,71.70
2018-02-20T10:20:50.005Z,71.70
2018-02-20T10:23:18.423Z,71.10
2018-02-20T10:25:46.625Z,71.00
2018-02-20T10:28:14.996Z,71.50
2018-02-20T10:30:42.628Z,72.20
2018-02-20T10:33:10.348Z,71.60
2018-02-20T10:35:38.690Z,71.60
2018-02-20T10:38:06.256Z,71.50
2018-02-20T10:40:33.875Z,70.50
2018-02-20T10:43:13.560Z,70.90
2018-02-20T10:45:50.031Z,70.80
2018-02-20T10:48:19.876Z,70.50
2018-02-20T10:50:50.185Z,70.70
2018-02-20T10:53:18.397Z,69.40
2018-02-20T10:55:56.911Z,68.80
2018-02-20T10:58:34.280Z,68.40
2018-02-20T11:01:07.584Z,67.90
2018-02-20T11:03:40.294Z,68.00
2018-02-20T11:06:14.503Z,68.90
2018-02-20T11:08:48.179Z,68.30
2018-02-20T11:11:17.669Z,67.60
2018-02-20T11:13:45.317Z,67.60
2018-02-20T11:16:15.785Z,67.60
2018-02-20T11:18:45.016Z,66.50
2018-02-20T11:23:54.603Z,69.00
2018-02-20T11:26:23.950Z,67.60
2018-02-20T11:28:52.826Z,68.30
2018-02-20T11:31:20.906Z,68.30
2018-02-20T11:33:49.251Z,68.50
2018-02-20T11:36:17.595Z,68.00
2018-02-20T11:38:45.913Z,68.00
2018-02-20T11:41:35.926Z,66.70
2018-02-20T11:44:03.646Z,66.70
2018-02-20T11:46:31.257Z,66.80
2018-02-20T11:48:59.914Z,66.90
2018-02-20T11:51:28.422Z,67.20
2018-02-20T11:53:56.893Z,68.00
2018-02-20T11:56:24.540Z,67.20
2018-02-20T11:58:52.193Z,66.10
2018-02-20T12:01:19.842Z,66.70
2018-02-20T12:03:47.449Z,66.70
2018-02-20T12:06:15.093Z,66.80
2018-02-20T12:08:42.766Z,66.20
2018-02-20T12:11:10.353Z,65.00
2018-02-20T12:13:37.980Z,66.80
2018-02-20T12:16:05.667Z,67.40
2018-02-20T12:18:33.254Z,65.30
2018-02-20T12:21:02.394Z,63.30
2018-02-20T12:23:30.157Z,63.30
2018-02-20T12:25:58.735Z,63.50
2018-02-20T12:28:26.540Z,63.60
2018-02-20T12:30:54.173Z,62.70
2018-02-20T12:33:21.860Z,62.00
2018-02-20T12:35:49.516Z,62.30
2018-02-20T12:38:17.128Z,62.90
2018-02-20T12:40:45.746Z,63.10
2018-02-20T12:43:13.403Z,63.10
2018-02-20T12:45:41.009Z,62.70
2018-02-20T12:48:08.631Z,62.10
2018-02-20T12:50:36.391Z,62.90
2018-02-20T12:53:04.145Z,63.60
2018-02-20T12:55:31.744Z,63.90
2018-02-20T12:57:59.513Z,62.90
2018-02-20T13:00:27.126Z,62.30
2018-02-20T13:02:55.572Z,61.50
2018-02-20T13:05:23.164Z,61.10
2018-02-20T13:07:50.957Z,61.60
2018-02-20T13:10:18.585Z,62.50
2018-02-20T13:12:46.340Z,61.60
2018-02-20T13:15:14.739Z,58.80
2018-02-20T13:17:42.360Z,58.80
2018-02-20T13:20:10.121Z,57.30
2018-02-20T13:22:37.711Z,55.60
2018-02-20T13:25:06.078Z,54.60
2018-02-20T13:27:33.721Z,54.50
2018-02-20T13:30:01.362Z,55.10
2018-02-20T13:32:29.024Z,56.30
2018-02-20T13:34:57.966Z,55.60
2018-02-20T13:37:26.679Z,56.30
2018-02-20T13:39:54.571Z,56.40
2018-02-20T13:42:22.189Z,55.70
2018-02-20T13:44:52.008Z,56.50
2018-02-20T13:47:20.190Z,57.10
2018-02-20T13:49:48.422Z,56.10
2018-02-20T13:52:16.072Z,56.90
2018-02-20T13:54:43.658Z,57.60
2018-02-20T13:57:11.351Z,59.20
2018-02-20T13:59:39.033Z,58.30
2018-02-20T14:02:06.744Z,58.80
2018-02-20T14:04:34.355Z,57.60
2018-02-20T14:07:01.929Z,57.70
2018-02-20T14:09:29.721Z,57.60
2018-02-20T14:11:57.296Z,58.90
2018-02-20T14:14:25.797Z,60.60
2018-02-20T14:16:53.372Z,60.60
2018-02-20T14:19:21.012Z,60.50
2018-02-20T14:21:49.524Z,58.50
2018-02-20T14:24:17.215Z,58.50
2018-02-20T14:26:44.876Z,58.80
2018-02-20T14:29:12.541Z,57.10
2018-02-20T14:31:40.806Z,57.70
2018-02-20T14:34:08.437Z,57.10
2018-02-20T14:36:36.813Z,57.50
2018-02-20T14:39:05.207Z,57.50
2018-02-20T14:41:32.872Z,57.50
2018-02-20T14:44:01.326Z,59.40
2018-02-20T14:46:29.164Z,58.80
2018-02-20T14:48:56.758Z,58.30
2018-02-20T14:51:25.161Z,58.10
2018-02-20T14:53:52.944Z,57.80
2018-02-20T14:56:20.584Z,57.10
2018-02-20T14:58:48.249Z,57.20
2018-02-20T15:01:15.814Z,57.10
2018-02-20T15:03:43.393Z,57.50
2018-02-20T15:06:11.088Z,57.30
2018-02-20T15:08:38.719Z,57.30
2018-02-20T15:11:06.350Z,55.20
2018-02-20T15:13:35.593Z,57.30
2018-02-20T15:16:04.210Z,57.30
2018-02-20T15:18:34.873Z,56.60
2018-02-20T15:21:02.885Z,56.90
2018-02-20T15:23:30.482Z,57.50
2018-02-20T15:25:58.768Z,56.40
2018-02-20T15:28:27.224Z,56.20
2018-02-20T15:30:54.992Z,56.20
2018-02-20T15:33:22.581Z,56.50
2018-02-20T15:35:51.001Z,56.50
2018-02-20T15:38:18.737Z,57.00
2018-02-20T15:40:47.094Z,56.00
2018-02-20T15:43:14.701Z,56.00
2018-02-20T15:45:42.301Z,56.90
2018-02-20T15:48:09.923Z,56.30
2018-02-20T15:50:38.782Z,56.60
2018-02-20T15:53:07.231Z,56.40
2018-02-20T15:55:34.866Z,56.40
2018-02-20T15:58:02.449Z,57.00
2018-02-20T16:00:30.117Z,57.90
2018-02-20T16:02:57.738Z,57.40
2018-02-20T16:05:25.394Z,58.10
2018-02-20T16:07:54.944Z,58.30
2018-02-20T16:10:23.169Z,58.90
2018-02-20T16:12:50.868Z,58.70
2018-02-20T16:15:18.634Z,58.70
2018-02-20T16:17:47.084Z,58.50
2018-02-20T16:20:14.648Z,58.40
2018-02-20T16:22:42.275Z,58.90
2018-02-20T16:25:09.884Z,59.30
2018-02-20T16:27:37.578Z,58.40
2018-02-20T16:30:11.916Z,59.70
2018-02-20T16:32:40.849Z,59.30
2018-02-20T16:35:09.012Z,59.20
2018-02-20T16:37:38.072Z,59.60
2018-02-20T16:40:05.708Z,60.70
2018-02-20T16:42:33.725Z,60.80
2018-02-20T16:45:13.997Z,61.20
2018-02-20T16:47:42.237Z,61.20
2018-02-20T16:50:10.120Z,61.30
2018-02-20T16:52:37.746Z,61.40
2018-02-20T16:55:05.391Z,61.20
2018-02-20T16:57:33.045Z,61.60
2018-02-20T17:00:00.745Z,61.70
2018-02-20T17:02:28.329Z,61.60
2018-02-20T17:04:56.758Z,62.10
2018-02-20T17:07:25.204Z,62.20
2018-02-20T17:09:53.593Z,62.50
2018-02-20T17:12:21.205Z,62.50
2018-02-20T17:14:48.891Z,62.70
2018-02-20T17:17:16.491Z,62.90
2018-02-20T17:19:44.448Z,63.30
2018-02-20T17:22:13.695Z,63.70
2018-02-20T17:24:42.042Z,63.70
2018-02-20T17:27:09.823Z,63.70
2018-02-20T17:29:37.442Z,64.40
2018-02-20T17:32:05.099Z,64.30
2018-02-20T17:34:32.725Z,65.30
2018-02-20T17:37:00.326Z,65.70
2018-02-20T17:39:28.004Z,65.60
2018-02-20T17:41:55.586Z,66.00
2018-02-20T17:44:23.204Z,65.30
2018-02-20T17:46:50.781Z,65.10
2018-02-20T17:49:18.414Z,65.70
2018-02-20T17:51:46.077Z,65.80
2018-02-20T17:54:13.689Z,65.90
2018-02-20T17:56:41.321Z,66.00
2018-02-20T17:59:08.945Z,66.40
2018-02-20T18:01:36.520Z,67.20
2018-02-20T18:04:04.135Z,66.70
2018-02-20T18:06:31.739Z,66.50
2018-02-20T18:08:59.368Z,66.90
2018-02-20T18:11:26.956Z,67.10
2018-02-20T18:13:54.613Z,67.20
2018-02-20T18:16:22.184Z,66.90
2018-02-20T18:18:49.787Z,67.60
2018-02-20T18:21:18.209Z,66.20
2018-02-20T18:23:45.865Z,66.20
2018-02-20T18:26:13.458Z,66.50
2018-02-20T18:28:41.056Z,67.60
2018-02-20T18:31:09.494Z,67.60
2018-02-20T18:33:37.062Z,67.50
2018-02-20T18:36:04.730Z,67.40
2018-02-20T18:38:32.446Z,67.20
2018-02-20T18:41:00.083Z,67.10
2018-02-20T18:43:27.815Z,67.60
2018-02-20T18:45:55.400Z,68.10
2018-02-20T18:48:23.811Z,67.80
2018-02-20T18:50:51.386Z,67.70
2018-02-20T18:53:19.522Z,68.10
2018-02-20T18:55:47.929Z,68.10
2018-02-20T18:58:15.503Z,68.10
2018-02-20T19:00:45.988Z,68.60
2018-02-20T19:03:14.323Z,68.70
2018-02-20T19:05:42.059Z,68.70
2018-02-20T19:08:09.653Z,68.30
2018-02-20T19:10:37.294Z,68.30
2018-02-20T19:13:04.850Z,67.80
2018-02-20T19:15:32.473Z,67.60
2018-02-20T19:18:00.140Z,67.80
2018-02-20T19:20:27.796Z,68.20
2018-02-20T19:22:56.160Z,68.70
2018-02-20T19:25:23.776Z,68.60
2018-02-20T19:27:51.421Z,68.50
2018-02-20T19:30:19.803Z,69.00
2018-02-20T19:32:48.157Z,69.10
2018-02-20T19:35:15.806Z,69.10
2018-02-20T19:37:43.374Z,69.50
2018-02-20T19:40:11.711Z,69.80
2018-02-20T19:42:39.324Z,69.70
2018-02-20T19:45:09.169Z,70.20
2018-02-20T19:47:36.882Z,70.70
2018-02-20T19:50:04.444Z,71.20
2018-02-20T19:52:32.819Z,71.50
2018-02-20T19:55:00.686Z,71.50
2018-02-20T19:57:28.327Z,71.50
2018-02-20T19:59:56.127Z,71.90
2018-02-20T20:02:23.916Z,72.00
2018-02-20T20:04:52.284Z,72.10
2018-02-20T20:07:20.309Z,72.00
2018-02-20T20:09:47.894Z,70.80
2018-02-20T20:12:15.472Z,70.20
2018-02-20T20:14:43.109Z,70.30
2018-02-20T20:17:11.352Z,70.80
2018-02-20T20:19:38.969Z,70.30
2018-02-20T20:22:06.766Z,70.50
2018-02-20T20:24:34.419Z,70.60
2018-02-20T20:27:02.107Z,70.60
2018-02-20T20:29:29.718Z,71.40
2018-02-20T20:31:57.303Z,71.40
2018-02-20T20:34:25.689Z,70.90
2018-02-20T20:36:53.275Z,70.80
2018-02-20T20:39:20.886Z,70.50
2018-02-20T20:41:48.498Z,70.20
2018-02-20T20:44:16.123Z,70.10
2018-02-20T20:46:44.600Z,70.20
2018-02-20T20:49:12.500Z,70.30
2018-02-20T20:51:40.130Z,70.30
2018-02-20T20:54:07.720Z,70.10
2018-02-20T20:56:36.077Z,69.70
2018-02-20T20:59:04.675Z,69.80
2018-02-20T21:01:35.260Z,69.40
2018-02-20T21:04:02.874Z,69.40
2018-02-20T21:06:30.489Z,69.10
2018-02-20T21:08:58.158Z,69.50
2018-02-20T21:11:25.725Z,69.70
2018-02-20T21:13:53.338Z,69.80
2018-02-20T21:16:20.922Z,70.20
2018-02-20T21:18:48.546Z,69.50
2018-02-20T21:21:16.934Z,70.00
2018-02-20T21:23:44.558Z,69.90
2018-02-20T21:26:12.138Z,70.00
2018-02-20T21:28:39.775Z,69.70
2018-02-20T21:31:07.359Z,69.60
2018-02-20T21:33:34.993Z,69.70
2018-02-20T21:36:02.570Z,70.10
2018-02-20T21:38:30.934Z,69.80
2018-02-20T21:40:58.570Z,69.70
2018-02-20T21:43:27.883Z,69.50
2018-02-20T21:46:01.174Z,69.30
2018-02-20T21:48:28.836Z,69.50
2018-02-20T21:50:56.924Z,69.90
2018-02-20T21:53:24.601Z,70.20
2018-02-20T21:55:52.194Z,70.60
2018-02-20T21:58:19.761Z,71.50
2018-02-20T22:00:47.369Z,72.00
2018-02-20T22:03:14.989Z,71.70
2018-02-20T22:05:43.370Z,71.80
2018-02-20T22:08:10.946Z,71.80
2018-02-20T22:10:38.554Z,71.60
2018-02-20T22:13:06.900Z,71.80
2018-02-20T22:15:34.527Z,71.80
2018-02-20T22:18:02.093Z,72.10
2018-02-20T22:20:29.664Z,72.00
2018-02-20T22:22:57.281Z,72.10
2018-02-20T22:25:25.641Z,72.60
2018-02-20T22:27:53.241Z,72.60
2018-02-20T22:30:21.576Z,73.00
2018-02-20T22:32:49.184Z,73.00
2018-02-20T22:35:17.518Z,73.30
2018-02-20T22:37:45.133Z,73.30
2018-02-20T22:40:12.691Z,73.40
2018-02-20T22:42:40.305Z,73.70
2018-02-20T22:45:07.920Z,73.70
2018-02-20T22:47:35.506Z,73.80
2018-02-20T22:50:03.101Z,74.10
2018-02-20T22:52:30.691Z,74.20
2018-02-20T22:54:59.067Z,74.60
2018-02-20T22:57:27.398Z,74.70
2018-02-20T22:59:54.965Z,74.60
2018-02-20T23:02:22.586Z,74.50
2018-02-20T23:04:50.308Z,74.60
2018-02-20T23:07:18.673Z,74.80
2018-02-20T23:09:46.277Z,74.70
2018-02-20T23:12:13.881Z,74.70
2018-02-20T23:14:41.490Z,74.80
2018-02-20T23:17:09.861Z,75.30
2018-02-20T23:19:38.200Z,75.10
2018-02-20T23:22:05.797Z,75.10
2018-02-20T23:24:33.378Z,75.20
2018-02-20T23:27:01.735Z,75.20
2018-02-20T23:29:29.358Z,75.10
2018-02-20T23:31:56.927Z,75.20
2018-02-20T23:34:24.543Z,74.90
2018-02-20T23:36:52.885Z,74.90
2018-02-20T23:39:20.557Z,74.90
2018-02-20T23:41:48.139Z,74.80
2018-02-20T23:44:16.505Z,75.00
2018-02-20T23:46:44.107Z,75.00
2018-02-20T23:49:11.740Z,74.50
2018-02-20T23:51:40.371Z,74.80
2018-02-20T23:54:07.980Z,74.90
2018-02-20T23:56:35.579Z,74.90
2018-02-20T23:59:03.190Z,75.70
